createdAt,value
2023-04-08T00:01:46.089Z,10.80
2023-04-08T00:04:15.673Z,10.80
2023-04-08T00:06:43.838Z,10.80
2023-04-08T00:09:11.981Z,10.80
2023-04-08T00:11:41.668Z,10.80
2023-04-08T00:14:09.797Z,10.80
2023-04-08T00:16:38.034Z,10.70
2023-04-08T00:19:07.325Z,10.70
2023-04-08T00:21:36.805Z,10.70
2023-04-08T00:24:05.602Z,10.70
2023-04-08T00:26:33.822Z,10.70
2023-04-08T00:29:01.950Z,10.70
2023-04-08T00:31:30.089Z,10.70
2023-04-08T00:33:58.893Z,10.70
2023-04-08T00:36:27.743Z,10.70
2023-04-08T00:38:57.573Z,10.80
2023-04-08T00:41:25.990Z,10.80
2023-04-08T00:43:54.105Z,10.80
2023-04-08T00:46:22.777Z,10.80
2023-04-08T00:48:51.369Z,10.80
2023-04-08T00:51:20.091Z,10.80
2023-04-08T00:53:48.354Z,10.80
2023-04-08T00:56:17.951Z,10.70
2023-04-08T00:58:46.207Z,10.70
2023-04-08T01:01:20.087Z,10.70
2023-04-08T01:03:57.403Z,10.70
2023-04-08T01:06:37.372Z,10.70
2023-04-08T01:09:07.259Z,10.70
2023-04-08T01:11:38.297Z,10.70
2023-04-08T01:14:10.267Z,10.70
2023-04-08T01:16:42.219Z,10.70
2023-04-08T01:19:15.690Z,10.70
2023-04-08T01:21:44.493Z,10.70
2023-04-08T01:24:19.396Z,10.70
2023-04-08T01:26:48.975Z,10.60
2023-04-08T01:29:18.367Z,10.60
2023-04-08T01:31:48.247Z,10.60
2023-04-08T01:34:18.120Z,10.60
2023-04-08T01:36:47.978Z,10.60
2023-04-08T01:39:17.856Z,10.60
2023-04-08T01:41:48.784Z,10.50
2023-04-08T01:44:18.832Z,10.50
2023-04-08T01:46:47.374Z,10.50
2023-04-08T01:49:17.033Z,10.50
2023-04-08T01:51:47.585Z,10.50
2023-04-08T01:54:16.212Z,10.40
2023-04-08T01:56:46.598Z,10.40
2023-04-08T01:59:18.154Z,10.40
2023-04-08T02:01:47.607Z,10.40
2023-04-08T02:04:15.996Z,10.40
2023-04-08T02:06:44.710Z,10.40
2023-04-08T02:09:12.863Z,10.40
2023-04-08T02:11:41.161Z,10.40
2023-04-08T02:14:09.375Z,10.40
2023-04-08T02:16:44.153Z,10.30
2023-04-08T02:19:19.422Z,10.40
2023-04-08T02:21:51.415Z,10.30
2023-04-08T02:24:20.377Z,10.30
2023-04-08T02:26:50.691Z,10.30
2023-04-08T02:29:19.432Z,10.30
2023-04-08T02:31:50.914Z,10.20
2023-04-08T02:34:21.873Z,10.20
2023-04-08T02:36:51.134Z,10.20
2023-04-08T02:39:19.458Z,10.20
2023-04-08T02:41:47.607Z,10.10
2023-04-08T02:44:15.775Z,10.10
2023-04-08T02:46:43.884Z,10.10
2023-04-08T02:49:13.365Z,10.10
2023-04-08T02:51:41.551Z,10.10
2023-04-08T02:54:12.017Z,10.10
2023-04-08T02:56:40.281Z,10.00
2023-04-08T02:59:08.593Z,10.00
2023-04-08T03:01:36.837Z,10.00
2023-04-08T03:04:05.512Z,10.00
2023-04-08T03:06:35.053Z,10.00
2023-04-08T03:09:03.205Z,10.00
2023-04-08T03:11:31.281Z,10.00
2023-04-08T03:13:59.581Z,9.90
2023-04-08T03:16:27.739Z,9.90
2023-04-08T03:18:56.049Z,9.80
2023-04-08T03:21:24.743Z,9.80
2023-04-08T03:23:54.227Z,9.80
2023-04-08T03:26:22.345Z,9.80
2023-04-08T03:28:50.588Z,9.80
2023-04-08T03:31:21.358Z,9.70
2023-04-08T03:33:49.449Z,9.70
2023-04-08T03:36:17.576Z,9.70
2023-04-08T03:38:45.948Z,9.70
2023-04-08T03:41:15.511Z,9.70
2023-04-08T03:43:43.616Z,9.70
2023-04-08T03:46:11.974Z,9.70
2023-04-08T03:48:40.136Z,9.70
2023-04-08T03:51:08.295Z,9.70
2023-04-08T03:53:36.371Z,9.60
2023-04-08T03:56:04.728Z,9.60
2023-04-08T03:58:34.289Z,9.60
2023-04-08T04:01:02.408Z,9.60
2023-04-08T04:03:30.839Z,9.60
2023-04-08T04:05:59.109Z,9.60
2023-04-08T04:08:27.288Z,9.60
2023-04-08T04:10:55.363Z,9.60
2023-04-08T04:13:23.446Z,9.60
2023-04-08T04:15:52.944Z,9.60
2023-04-08T04:18:21.073Z,9.60
2023-04-08T04:20:49.130Z,9.50
2023-04-08T04:23:17.346Z,9.50
2023-04-08T04:25:45.648Z,9.50
2023-04-08T04:28:13.939Z,9.50
2023-04-08T04:30:42.094Z,9.50
2023-04-08T04:33:11.534Z,9.50
2023-04-08T04:35:41.179Z,9.50
2023-04-08T04:38:12.499Z,9.50
2023-04-08T04:40:41.235Z,9.50
2023-04-08T04:43:09.433Z,9.50
2023-04-08T04:45:37.578Z,9.40
2023-04-08T04:48:06.024Z,9.40
2023-04-08T04:50:35.738Z,9.40
2023-04-08T04:53:03.895Z,9.40
2023-04-08T04:55:32.163Z,9.40
2023-04-08T04:58:00.376Z,9.30
2023-04-08T05:00:28.576Z,9.30
2023-04-08T05:02:56.860Z,9.30
2023-04-08T05:05:25.033Z,9.30
2023-04-08T05:07:54.691Z,9.30
2023-04-08T05:10:22.926Z,9.30
2023-04-08T05:12:51.032Z,9.30
2023-04-08T05:15:19.307Z,9.30
2023-04-08T05:17:47.482Z,9.30
2023-04-08T05:20:17.538Z,9.30
2023-04-08T05:22:45.891Z,9.40
2023-04-08T05:25:15.646Z,9.40
2023-04-08T05:27:43.808Z,9.40
2023-04-08T05:30:12.750Z,9.40
2023-04-08T05:32:41.129Z,9.40
2023-04-08T05:35:10.688Z,9.40
2023-04-08T05:37:38.817Z,9.50
2023-04-08T05:40:08.082Z,9.50
2023-04-08T05:42:37.645Z,9.60
2023-04-08T05:45:06.556Z,9.60
2023-04-08T05:47:34.764Z,9.60
2023-04-08T05:50:02.971Z,9.70
2023-04-08T05:52:31.215Z,9.70
2023-04-08T05:54:59.358Z,9.70
2023-04-08T05:57:27.532Z,9.70
2023-04-08T05:59:57.031Z,9.80
2023-04-08T06:02:25.305Z,9.80
2023-04-08T06:04:53.663Z,9.90
2023-04-08T06:07:21.828Z,9.90
2023-04-08T06:09:50.000Z,10.00
2023-04-08T06:12:18.196Z,10.10
2023-04-08T06:14:46.396Z,10.10
2023-04-08T06:17:15.849Z,10.20
2023-04-08T06:19:43.988Z,10.20
2023-04-08T06:22:12.118Z,10.30
2023-04-08T06:24:40.253Z,10.30
2023-04-08T06:27:08.823Z,10.40
2023-04-08T06:29:37.156Z,10.40
2023-04-08T06:32:06.231Z,10.50
2023-04-08T06:34:35.828Z,10.60
2023-04-08T06:37:03.950Z,10.70
2023-04-08T06:39:32.099Z,10.70
2023-04-08T06:42:00.174Z,10.80
2023-04-08T06:44:28.436Z,10.80
2023-04-08T06:46:56.819Z,10.90
2023-04-08T06:49:25.128Z,11.00
2023-04-08T06:51:54.665Z,11.00
2023-04-08T06:54:22.782Z,11.10
2023-04-08T06:56:50.956Z,11.10
2023-04-08T06:59:19.211Z,11.20
2023-04-08T07:01:47.690Z,11.20
2023-04-08T07:04:15.971Z,11.30
2023-04-08T07:06:44.134Z,11.20
2023-04-08T07:09:13.605Z,11.20
2023-04-08T07:11:41.859Z,11.20
2023-04-08T07:14:10.096Z,11.30
2023-04-08T07:16:38.250Z,11.30
2023-04-08T07:19:06.734Z,11.30
2023-04-08T07:21:34.868Z,11.40
2023-04-08T07:24:03.015Z,11.40
2023-04-08T07:26:32.659Z,11.40
2023-04-08T07:29:00.803Z,11.50
2023-04-08T07:31:29.040Z,11.50
2023-04-08T07:33:57.271Z,11.60
2023-04-08T07:36:25.370Z,11.60
2023-04-08T07:38:53.529Z,11.60
2023-04-08T07:41:21.912Z,11.60
2023-04-08T07:43:51.343Z,11.70
2023-04-08T07:46:20.124Z,11.80
2023-04-08T07:48:48.532Z,11.80
2023-04-08T07:51:16.791Z,11.90
2023-04-08T07:53:48.689Z,11.90
2023-04-08T07:56:18.359Z,12.00
2023-04-08T08:01:20.045Z,12.00
2023-04-08T08:03:49.039Z,12.10
2023-04-08T08:06:17.671Z,12.10
2023-04-08T08:08:46.263Z,12.10
2023-04-08T08:11:14.488Z,12.20
2023-04-08T08:13:42.594Z,12.20
2023-04-08T08:16:11.987Z,12.20
2023-04-08T08:18:42.332Z,12.20
2023-04-08T08:21:10.806Z,12.20
2023-04-08T08:23:39.038Z,12.30
2023-04-08T08:26:09.872Z,12.30
2023-04-08T08:28:38.518Z,12.30
2023-04-08T08:31:06.952Z,12.30
2023-04-08T08:33:35.569Z,12.30
2023-04-08T08:36:07.099Z,12.30
2023-04-08T08:38:35.510Z,12.40
2023-04-08T08:41:04.653Z,12.40
2023-04-08T08:43:33.505Z,12.40
2023-04-08T08:46:01.981Z,12.40
2023-04-08T08:48:30.199Z,12.40
2023-04-08T08:50:58.799Z,12.40
2023-04-08T08:53:34.268Z,12.40
2023-04-08T08:58:34.782Z,12.50
2023-04-08T09:01:02.966Z,12.50
2023-04-08T09:03:31.293Z,12.50
2023-04-08T09:06:01.281Z,12.50
2023-04-08T09:08:32.674Z,12.60
2023-04-08T09:11:13.672Z,12.60
2023-04-08T09:13:42.363Z,12.60
2023-04-08T09:16:12.717Z,12.60
2023-04-08T09:18:44.434Z,12.70
2023-04-08T09:21:13.693Z,12.70
2023-04-08T09:23:45.719Z,12.80
2023-04-08T09:26:15.625Z,12.80
2023-04-08T09:28:45.750Z,12.80
2023-04-08T09:31:21.674Z,12.90
2023-04-08T09:33:50.540Z,12.90
2023-04-08T09:36:19.014Z,12.90
2023-04-08T09:38:49.021Z,13.00
2023-04-08T09:41:18.892Z,13.00
2023-04-08T09:43:50.679Z,13.00
2023-04-08T09:46:20.499Z,13.00
2023-04-08T09:48:52.488Z,13.10
2023-04-08T09:51:21.464Z,13.10
2023-04-08T09:53:57.528Z,13.20
2023-04-08T09:56:28.128Z,13.10
2023-04-08T09:59:01.297Z,13.10
2023-04-08T10:01:40.132Z,13.20
2023-04-08T10:04:16.056Z,13.20
2023-04-08T10:06:44.692Z,13.20
2023-04-08T10:09:14.568Z,13.20
2023-04-08T10:11:42.663Z,13.20
2023-04-08T10:14:11.503Z,13.30
2023-04-08T10:16:39.739Z,13.30
2023-04-08T10:19:40.478Z,13.30
2023-04-08T10:22:42.253Z,13.40
2023-04-08T10:25:32.449Z,13.40
2023-04-08T10:28:01.686Z,13.40
2023-04-08T10:30:45.736Z,13.40
2023-04-08T10:33:15.220Z,13.50
2023-04-08T10:35:46.578Z,13.50
2023-04-08T10:38:16.053Z,13.60
2023-04-08T10:40:46.804Z,13.50
2023-04-08T10:43:16.153Z,13.50
2023-04-08T10:45:48.437Z,13.50
2023-04-08T10:48:19.219Z,13.60
2023-04-08T10:50:55.429Z,13.60
2023-04-08T10:53:30.353Z,13.60
2023-04-08T10:56:07.548Z,13.60
2023-04-08T10:58:36.534Z,13.60
2023-04-08T11:01:06.833Z,13.60
2023-04-08T11:03:35.602Z,13.60
2023-04-08T11:06:04.490Z,13.70
2023-04-08T11:08:33.434Z,13.70
2023-04-08T11:11:02.500Z,13.70
2023-04-08T11:13:32.532Z,13.80
2023-04-08T11:16:02.800Z,13.80
2023-04-08T11:18:32.334Z,13.80
2023-04-08T11:21:01.770Z,13.80
2023-04-08T11:23:30.021Z,13.90
2023-04-08T11:25:58.657Z,13.90
2023-04-08T11:28:27.276Z,13.90
2023-04-08T11:30:58.141Z,14.00
2023-04-08T11:33:27.439Z,14.10
2023-04-08T11:35:56.670Z,14.20
2023-04-08T11:38:26.141Z,14.20
2023-04-08T11:40:55.323Z,14.20
2023-04-08T11:43:23.691Z,14.20
2023-04-08T11:45:51.917Z,14.20
2023-04-08T11:48:21.768Z,14.30
2023-04-08T11:50:51.678Z,14.30
2023-04-08T11:53:20.832Z,14.40
2023-04-08T11:55:49.776Z,14.40
2023-04-08T11:58:18.174Z,14.40
2023-04-08T12:00:46.744Z,14.40
2023-04-08T12:03:14.993Z,14.40
2023-04-08T12:05:44.609Z,14.40
2023-04-08T12:08:12.768Z,14.40
2023-04-08T12:10:40.913Z,14.40
2023-04-08T12:13:08.997Z,14.50
2023-04-08T12:15:37.128Z,14.50
2023-04-08T12:18:06.354Z,14.60
2023-04-08T12:20:34.612Z,14.60
2023-04-08T12:23:04.115Z,14.60
2023-04-08T12:25:32.514Z,14.60
2023-04-08T12:28:00.618Z,14.60
2023-04-08T12:30:28.698Z,14.60
2023-04-08T12:32:57.848Z,14.70
2023-04-08T12:35:26.296Z,14.70
2023-04-08T12:37:54.381Z,14.70
2023-04-08T12:40:23.981Z,14.80
2023-04-08T12:42:52.195Z,14.90
2023-04-08T12:45:20.428Z,14.90
2023-04-08T12:47:48.609Z,15.00
2023-04-08T12:50:17.150Z,15.00
2023-04-08T12:52:45.255Z,15.00
2023-04-08T12:55:13.388Z,15.00
2023-04-08T12:57:42.840Z,15.00
2023-04-08T13:00:12.067Z,15.00
2023-04-08T13:02:42.196Z,15.00
2023-04-08T13:05:10.703Z,15.00
2023-04-08T13:07:38.795Z,15.00
2023-04-08T13:10:08.286Z,15.10
2023-04-08T13:12:38.890Z,15.10
2023-04-08T13:15:10.125Z,15.10
2023-04-08T13:17:38.286Z,15.10
2023-04-08T13:20:09.612Z,15.20
2023-04-08T13:22:37.864Z,15.30
2023-04-08T13:25:07.252Z,15.30
2023-04-08T13:27:35.313Z,15.30
2023-04-08T13:30:03.426Z,15.30
2023-04-08T13:32:32.955Z,15.40
2023-04-08T13:35:01.139Z,15.40
2023-04-08T13:37:30.184Z,15.50
2023-04-08T13:39:58.693Z,15.40
2023-04-08T13:42:27.081Z,15.50
2023-04-08T13:44:55.249Z,15.50
2023-04-08T13:47:23.345Z,15.50
2023-04-08T13:49:53.399Z,15.50
2023-04-08T13:52:21.880Z,15.60
2023-04-08T13:54:50.011Z,15.60
2023-04-08T13:57:18.100Z,15.60
2023-04-08T13:59:46.269Z,15.60
2023-04-08T14:02:14.627Z,15.60
2023-04-08T14:04:43.234Z,15.60
2023-04-08T14:07:12.823Z,15.70
2023-04-08T14:09:41.009Z,15.70
2023-04-08T14:12:09.138Z,15.70
2023-04-08T14:14:37.370Z,15.70
2023-04-08T14:17:05.930Z,15.70
2023-04-08T14:19:34.120Z,15.70
2023-04-08T14:22:02.262Z,15.70
2023-04-08T14:24:31.765Z,15.70
2023-04-08T14:26:59.896Z,15.70
2023-04-08T14:29:28.012Z,15.70
2023-04-08T14:31:56.128Z,15.70
2023-04-08T14:34:24.755Z,15.80
2023-04-08T14:36:52.911Z,15.80
2023-04-08T14:39:21.041Z,15.80
2023-04-08T14:41:50.691Z,15.80
2023-04-08T14:44:18.799Z,15.80
2023-04-08T14:46:47.180Z,15.80
2023-04-08T14:49:15.719Z,15.80
2023-04-08T14:51:43.933Z,15.80
2023-04-08T14:54:14.153Z,15.90
2023-04-08T14:56:42.271Z,15.80
2023-04-08T14:59:11.795Z,15.90
2023-04-08T15:01:41.380Z,15.90
2023-04-08T15:04:09.646Z,15.90
2023-04-08T15:06:39.052Z,15.90
2023-04-08T15:09:07.282Z,15.90
2023-04-08T15:11:35.477Z,15.90
2023-04-08T15:14:03.579Z,15.90
2023-04-08T15:16:33.195Z,15.90
2023-04-08T15:19:01.378Z,15.90
2023-04-08T15:21:29.479Z,15.90
2023-04-08T15:23:58.840Z,15.90
2023-04-08T15:26:27.423Z,15.90
2023-04-08T15:28:57.489Z,15.90
2023-04-08T15:31:25.756Z,15.90
2023-04-08T15:33:55.252Z,15.90
2023-04-08T15:36:23.403Z,15.90
2023-04-08T15:38:52.689Z,15.90
2023-04-08T15:41:21.334Z,15.90
2023-04-08T15:43:50.227Z,15.90
2023-04-08T15:46:22.105Z,15.90
2023-04-08T15:48:50.789Z,15.90
2023-04-08T15:51:20.784Z,15.90
2023-04-08T15:53:50.407Z,15.90
2023-04-08T15:56:19.330Z,15.90
2023-04-08T15:58:47.533Z,15.90
2023-04-08T16:01:16.867Z,15.90
2023-04-08T16:03:45.203Z,15.90
2023-04-08T16:06:13.510Z,15.90
2023-04-08T16:08:43.888Z,15.90
2023-04-08T16:11:12.075Z,15.80
2023-04-08T16:13:42.394Z,15.80
2023-04-08T16:16:12.281Z,15.80
2023-04-08T16:18:41.618Z,15.80
2023-04-08T16:21:09.872Z,15.80
2023-04-08T16:23:38.571Z,15.80
2023-04-08T16:26:08.823Z,15.80
2023-04-08T16:28:38.964Z,15.80
2023-04-08T16:31:07.267Z,15.80
2023-04-08T16:33:35.368Z,15.70
2023-04-08T16:36:04.241Z,15.70
2023-04-08T16:38:33.092Z,15.70
2023-04-08T16:41:01.300Z,15.70
2023-04-08T16:43:30.759Z,15.70
2023-04-08T16:45:59.099Z,15.60
2023-04-08T16:48:27.286Z,15.60
2023-04-08T16:50:55.426Z,15.60
2023-04-08T16:53:23.595Z,15.50
2023-04-08T16:55:51.963Z,15.50
2023-04-08T16:58:20.062Z,15.50
2023-04-08T17:00:49.638Z,15.50
2023-04-08T17:03:17.965Z,15.40
2023-04-08T17:05:46.129Z,15.40
2023-04-08T17:08:14.463Z,15.30
2023-04-08T17:10:45.304Z,15.30
2023-04-08T17:13:14.876Z,15.30
2023-04-08T17:15:43.144Z,15.30
2023-04-08T17:18:12.583Z,15.20
2023-04-08T17:20:40.736Z,15.20
2023-04-08T17:23:09.804Z,15.20
2023-04-08T17:25:38.142Z,15.20
2023-04-08T17:28:06.340Z,15.10
2023-04-08T17:30:34.505Z,15.10
2023-04-08T17:33:03.123Z,15.10
2023-04-08T17:35:32.742Z,15.00
2023-04-08T17:38:01.110Z,15.00
2023-04-08T17:40:29.234Z,15.00
2023-04-08T17:42:57.748Z,14.90
2023-04-08T17:45:25.900Z,14.90
2023-04-08T17:47:54.057Z,14.90
2023-04-08T17:50:22.176Z,14.80
2023-04-08T17:52:51.660Z,14.80
2023-04-08T17:55:19.823Z,14.80
2023-04-08T17:57:49.689Z,14.80
2023-04-08T18:00:17.922Z,14.70
2023-04-08T18:02:48.236Z,14.70
2023-04-08T18:05:17.790Z,14.60
2023-04-08T18:07:46.095Z,14.60
2023-04-08T18:10:16.128Z,14.60
2023-04-08T18:12:44.264Z,14.60
2023-04-08T18:15:12.745Z,14.60
2023-04-08T18:17:40.850Z,14.50
2023-04-08T18:20:09.932Z,14.50
2023-04-08T18:22:38.101Z,14.50
2023-04-08T18:25:07.457Z,14.50
2023-04-08T18:27:37.014Z,14.40
2023-04-08T18:30:05.657Z,14.40
2023-04-08T18:32:33.886Z,14.40
2023-04-08T18:35:02.194Z,14.40
2023-04-08T18:37:31.782Z,14.40
2023-04-08T18:40:02.342Z,14.40
2023-04-08T18:42:30.901Z,14.30
2023-04-08T18:45:00.557Z,14.30
2023-04-08T18:47:28.781Z,14.20
2023-04-08T18:49:57.746Z,14.20
2023-04-08T18:52:25.861Z,14.20
2023-04-08T18:54:54.658Z,14.10
2023-04-08T18:57:23.126Z,14.10
2023-04-08T18:59:51.202Z,14.00
2023-04-08T19:02:21.749Z,14.00
2023-04-08T19:04:49.963Z,14.00
2023-04-08T19:07:18.857Z,14.00
2023-04-08T19:09:47.768Z,13.80
2023-04-08T19:12:15.914Z,13.80
2023-04-08T19:14:44.045Z,13.70
2023-04-08T19:17:12.220Z,13.50
2023-04-08T19:19:41.894Z,13.50
2023-04-08T19:22:10.479Z,13.40
2023-04-08T19:24:38.865Z,13.30
2023-04-08T19:27:07.010Z,13.20
2023-04-08T19:29:35.492Z,13.10
2023-04-08T19:32:04.237Z,13.10
2023-04-08T19:34:32.442Z,13.00
2023-04-08T19:37:01.910Z,13.00
2023-04-08T19:39:29.987Z,12.90
2023-04-08T19:41:58.152Z,12.90
2023-04-08T19:44:26.391Z,12.80
2023-04-08T19:46:54.761Z,12.80
2023-04-08T19:49:22.931Z,12.80
2023-04-08T19:51:51.734Z,12.70
2023-04-08T19:54:21.767Z,12.60
2023-04-08T19:56:50.218Z,12.50
2023-04-08T19:59:19.355Z,12.50
2023-04-08T20:01:47.487Z,12.50
2023-04-08T20:04:15.632Z,12.40
2023-04-08T20:06:43.834Z,12.30
2023-04-08T20:09:11.971Z,12.30
2023-04-08T20:11:42.487Z,12.30
2023-04-08T20:14:10.987Z,12.20
2023-04-08T20:16:39.723Z,12.20
2023-04-08T20:19:08.733Z,12.10
2023-04-08T20:21:37.969Z,12.10
2023-04-08T20:24:07.515Z,12.10
2023-04-08T20:26:35.817Z,12.10
2023-04-08T20:29:06.134Z,12.10
2023-04-08T20:31:35.072Z,12.00
2023-04-08T20:34:03.673Z,12.00
2023-04-08T20:36:33.010Z,12.00
2023-04-08T20:39:02.466Z,12.00
2023-04-08T20:41:31.327Z,12.00
2023-04-08T20:44:00.255Z,12.00
2023-04-08T20:46:30.000Z,12.00
2023-04-08T20:48:58.924Z,12.10
2023-04-08T20:51:27.567Z,12.00
2023-04-08T20:53:56.405Z,12.10
2023-04-08T20:56:24.721Z,12.00
2023-04-08T20:58:53.924Z,12.00
2023-04-08T21:01:24.047Z,12.10
2023-04-08T21:03:54.781Z,12.10
2023-04-08T21:06:23.234Z,12.00
2023-04-08T21:08:52.039Z,12.00
2023-04-08T21:11:21.097Z,12.10
2023-04-08T21:13:49.411Z,12.10
2023-04-08T21:16:17.875Z,12.10
2023-04-08T21:18:46.045Z,12.10
2023-04-08T21:21:15.636Z,12.10
2023-04-08T21:23:43.760Z,12.10
2023-04-08T21:26:12.994Z,12.10
2023-04-08T21:28:41.155Z,12.10
2023-04-08T21:31:09.930Z,12.20
2023-04-08T21:33:38.158Z,12.20
2023-04-08T21:36:07.468Z,12.30
2023-04-08T21:38:37.085Z,12.30
2023-04-08T21:41:05.210Z,12.30
2023-04-08T21:43:33.318Z,12.40
2023-04-08T21:46:01.459Z,12.40
2023-04-08T21:48:29.519Z,12.40
2023-04-08T21:50:57.661Z,12.40
2023-04-08T21:53:25.872Z,12.40
2023-04-08T21:55:55.670Z,12.40
2023-04-08T21:58:23.815Z,12.40
2023-04-08T22:00:53.056Z,12.40
2023-04-08T22:03:21.512Z,12.40
2023-04-08T22:05:49.766Z,12.50
2023-04-08T22:08:17.924Z,12.50
2023-04-08T22:10:46.557Z,12.50
2023-04-08T22:13:18.725Z,12.40
2023-04-08T22:15:46.817Z,12.40
2023-04-08T22:18:14.950Z,12.50
2023-04-08T22:20:43.077Z,12.40
2023-04-08T22:23:11.169Z,12.40
2023-04-08T22:25:39.288Z,12.40
2023-04-08T22:28:07.650Z,12.40
2023-04-08T22:30:37.282Z,12.40
2023-04-08T22:33:05.459Z,12.40
2023-04-08T22:35:33.557Z,12.40
2023-04-08T22:38:01.726Z,12.40
2023-04-08T22:40:29.962Z,12.50
2023-04-08T22:42:58.061Z,12.40
2023-04-08T22:45:26.278Z,12.40
2023-04-08T22:47:55.904Z,12.30
2023-04-08T22:50:24.258Z,12.30
2023-04-08T22:52:52.370Z,12.30
2023-04-08T22:55:20.676Z,12.20
2023-04-08T22:57:48.864Z,12.20
2023-04-08T23:00:17.218Z,12.20
2023-04-08T23:02:45.731Z,12.20
2023-04-08T23:05:15.504Z,12.10
2023-04-08T23:07:43.631Z,12.20
2023-04-08T23:10:12.219Z,12.20
2023-04-08T23:12:40.471Z,12.10
2023-04-08T23:15:09.293Z,12.10
2023-04-08T23:17:37.400Z,12.00
2023-04-08T23:20:06.502Z,12.00
2023-04-08T23:22:36.097Z,12.00
2023-04-08T23:25:04.291Z,11.90
2023-04-08T23:27:32.452Z,11.90
2023-04-08T23:30:05.356Z,11.80
2023-04-08T23:32:33.710Z,11.80
2023-04-08T23:35:02.659Z,11.80
2023-04-08T23:37:31.291Z,11.80
2023-04-08T23:40:00.783Z,11.80
2023-04-08T23:42:28.943Z,11.80
2023-04-08T23:44:57.076Z,11.90
2023-04-08T23:47:25.271Z,11.90
2023-04-08T23:49:53.375Z,11.90
2023-04-08T23:52:21.433Z,11.90
2023-04-08T23:54:51.238Z,12.00
2023-04-08T23:57:21.363Z,12.00
2023-04-08T23:59:49.556Z,12.00
